Time;durP1;ratioP1;P1;durP2;ratioP2;P2;SDS_P1;SDS_P2;PMS_P1;PMS_P2;Temp;Humidity;BMP_temperature;BMP_pressure;BME280_temperature;BME280_humidity;BME280_pressure;Samples;Min_cycle;Max_cycle;Signal;HPM_P1;HPM_P2
2024/01/24 00:00:06;;;;;;;5.70;1.98;;;;;;;11.33;95.69;101337.44;4998206;28;20439;-60
2024/01/24 00:02:31;;;;;;;7.90;2.30;;;;;;;11.38;96.55;101328.34;4990464;28;20038;-60
2024/01/24 00:04:57;;;;;;;4.05;1.77;;;;;;;11.38;95.82;101309.75;4989996;28;20458;-60
2024/01/24 00:07:22;;;;;;;5.38;2.10;;;;;;;11.38;95.96;101304.19;4990390;28;20034;-60
2024/01/24 00:09:47;;;;;;;4.75;1.83;;;;;;;11.38;96.09;101293.06;4990750;28;20022;-60
2024/01/24 00:12:12;;;;;;;3.75;2.05;;;;;;;11.42;96.20;101310.09;4998636;28;20030;-60
2024/01/24 00:14:38;;;;;;;5.50;2.22;;;;;;;11.42;95.73;101332.31;4990927;28;20029;-60
2024/01/24 00:17:03;;;;;;;5.32;1.88;;;;;;;11.46;95.91;101336.31;4990012;28;20378;-60
2024/01/24 00:19:28;;;;;;;4.65;1.80;;;;;;;11.48;95.68;101346.09;4997354;28;20097;-60
2024/01/24 00:21:54;;;;;;;5.22;1.75;;;;;;;11.48;95.31;101353.59;4998338;28;20160;-60
2024/01/24 00:24:19;;;;;;;4.85;1.85;;;;;;;11.48;95.12;101353.59;5016231;28;20108;-59
2024/01/24 00:26:45;;;;;;;4.20;1.70;;;;;;;11.50;95.17;101334.72;5044230;28;20034;-60
2024/01/24 00:29:10;;;;;;;3.67;1.60;;;;;;;11.52;94.82;101330.59;5003357;28;20030;-60
2024/01/24 00:31:36;;;;;;;3.33;1.50;;;;;;;11.54;94.70;101325.63;5008411;28;20037;-59
2024/01/24 00:34:01;;;;;;;4.22;1.42;;;;;;;11.59;94.78;101315.69;5012524;28;20026;-60
2024/01/24 00:36:26;;;;;;;4.07;1.70;;;;;;;11.59;94.47;101307.34;5076016;28;20031;-60
2024/01/24 00:38:51;;;;;;;4.10;2.00;;;;;;;11.62;94.44;101316.03;5111866;28;20503;-60
2024/01/24 00:41:17;;;;;;;2.85;1.38;;;;;;;11.64;93.86;101313.03;5029202;28;20040;-60
2024/01/24 00:43:42;;;;;;;2.10;1.30;;;;;;;11.64;93.76;101294.41;5018591;28;20163;-59
2024/01/24 00:46:08;;;;;;;3.05;1.50;;;;;;;11.65;93.94;101311.94;5021888;28;20507;-60
2024/01/24 00:48:33;;;;;;;4.18;1.70;;;;;;;11.67;93.84;101315.28;4989675;28;20496;-60
2024/01/24 00:50:58;;;;;;;4.90;1.40;;;;;;;11.69;93.69;101318.69;5004375;28;20037;-60
2024/01/24 00:53:25;;;;;;;3.10;1.40;;;;;;;11.68;93.54;101306.72;5008699;28;20029;-60
2024/01/24 00:55:50;;;;;;;5.20;1.50;;;;;;;11.71;93.22;101302.56;5005768;28;20034;-60
2024/01/24 00:58:15;;;;;;;5.38;1.60;;;;;;;11.72;93.37;101320.97;5003902;28;20044;-60
2024/01/24 01:00:41;;;;;;;2.90;1.70;;;;;;;11.73;93.33;101305.97;5012832;28;20130;-60
2024/01/24 01:03:07;;;;;;;2.63;1.55;;;;;;;11.73;93.88;101301.25;5009190;28;20053;-60
2024/01/24 01:05:32;;;;;;;1.95;1.40;;;;;;;11.75;94.10;101299.06;5009135;28;20508;-60
2024/01/24 01:07:57;;;;;;;3.40;1.63;;;;;;;11.73;94.10;101297.63;5008293;28;20163;-60
2024/01/24 01:10:23;;;;;;;3.40;1.50;;;;;;;11.72;94.79;101294.00;5008894;28;20062;-60
2024/01/24 01:12:48;;;;;;;3.80;1.60;;;;;;;11.69;95.07;101308.41;5022524;28;20037;-60
2024/01/24 01:15:13;;;;;;;3.03;1.40;;;;;;;11.68;95.46;101309.50;5028124;28;20029;-60
2024/01/24 01:17:39;;;;;;;2.00;1.48;;;;;;;11.67;96.04;101293.03;5028750;28;20090;-59
2024/01/24 01:20:05;;;;;;;3.35;2.08;;;;;;;11.65;95.99;101293.31;4994663;28;20378;-59
2024/01/24 01:22:30;;;;;;;2.50;1.25;;;;;;;11.64;96.49;101288.00;5011427;28;20044;-59
2024/01/24 01:24:55;;;;;;;1.70;1.40;;;;;;;11.63;96.91;101289.94;5008935;28;20030;-59
2024/01/24 01:27:22;;;;;;;2.45;1.42;;;;;;;11.63;96.54;101291.84;5018441;28;20029;-59
2024/01/24 01:29:48;;;;;;;2.33;1.67;;;;;;;11.62;97.14;101276.28;5013378;28;20490;-59
2024/01/24 01:32:13;;;;;;;1.92;1.48;;;;;;;11.61;96.97;101285.72;5008858;28;20069;-59
2024/01/24 01:34:38;;;;;;;2.10;1.48;;;;;;;11.59;97.43;101287.88;5008072;28;20021;-59
2024/01/24 01:37:03;;;;;;;5.10;1.65;;;;;;;11.58;97.25;101267.59;5011710;28;20397;-59
2024/01/24 01:39:29;;;;;;;2.75;1.50;;;;;;;11.58;97.64;101291.78;5024930;28;20026;-59
2024/01/24 01:41:54;;;;;;;1.95;1.48;;;;;;;11.58;97.59;101300.13;5012960;28;20051;-59
2024/01/24 01:44:20;;;;;;;2.45;1.48;;;;;;;11.56;97.80;101294.81;5014967;28;20065;-59
2024/01/24 01:46:45;;;;;;;1.60;1.30;;;;;;;11.53;98.17;101298.91;5006205;28;20022;-60
2024/01/24 01:49:12;;;;;;;1.63;1.40;;;;;;;11.54;98.53;101286.69;5006168;28;20034;-59
2024/01/24 01:51:37;;;;;;;3.50;1.42;;;;;;;11.54;98.54;101291.44;5009334;28;20022;-60
2024/01/24 01:54:03;;;;;;;3.33;1.75;;;;;;;11.53;98.55;101292.53;5008416;28;20492;-59
2024/01/24 01:56:29;;;;;;;2.45;1.48;;;;;;;11.54;99.34;101302.53;5007861;28;20075;-59
2024/01/24 01:58:55;;;;;;;2.55;1.33;;;;;;;11.53;99.51;101301.69;5008624;28;20439;-60
2024/01/24 02:01:21;;;;;;;1.45;1.35;;;;;;;11.51;100.00;101292.78;5006957;28;20030;-59
2024/01/24 02:03:46;;;;;;;1.73;1.20;;;;;;;11.50;100.00;101296.63;5007904;28;20069;-59
2024/01/24 02:06:12;;;;;;;2.58;1.30;;;;;;;11.51;100.00;101269.69;5003989;28;20018;-60
2024/01/24 02:08:39;;;;;;;1.50;1.40;;;;;;;11.49;100.00;101269.09;4995880;28;20038;-60
2024/01/24 02:11:05;;;;;;;1.88;1.38;;;;;;;11.48;100.00;101282.16;4995034;28;20651;-60
2024/01/24 02:13:31;;;;;;;1.92;1.20;;;;;;;11.48;100.00;101284.09;5062206;28;20018;-60
2024/01/24 02:16:01;;;;;;;1.60;1.25;;;;;;;11.48;100.00;101286.88;5007599;28;20097;-60
2024/01/24 02:18:27;;;;;;;3.65;1.67;;;;;;;11.46;100.00;101287.09;5007700;28;20082;-60
2024/01/24 02:20:52;;;;;;;1.25;1.00;;;;;;;11.47;100.00;101304.63;5006954;28;20113;-60
2024/01/24 02:23:19;;;;;;;1.08;1.00;;;;;;;11.47;100.00;101279.59;5007764;28;20034;-60
2024/01/24 02:25:44;;;;;;;1.23;1.00;;;;;;;11.47;100.00;101285.16;5030503;28;20020;-60
2024/01/24 02:28:09;;;;;;;1.90;1.20;;;;;;;11.46;100.00;101295.44;5111354;28;20078;-60
2024/01/24 02:30:34;;;;;;;0.98;0.90;;;;;;;11.46;100.00;101294.59;5014977;28;20041;-60
2024/01/24 02:33:00;;;;;;;1.50;1.00;;;;;;;11.46;100.00;101289.03;5006902;28;20140;-60
2024/01/24 02:35:27;;;;;;;1.30;0.90;;;;;;;11.45;100.00;101287.38;5018743;28;20491;-60
2024/01/24 02:37:52;;;;;;;0.98;0.93;;;;;;;11.44;100.00;101283.75;5047695;28;20017;-60
2024/01/24 02:40:18;;;;;;;1.00;0.80;;;;;;;11.44;100.00;101282.91;5017889;28;20022;-60
2024/01/24 02:42:43;;;;;;;1.27;1.00;;;;;;;11.43;100.00;101290.38;5023307;28;20037;-60
2024/01/24 02:45:08;;;;;;;1.25;0.90;;;;;;;11.44;100.00;101285.69;5018987;28;20185;-60
2024/01/24 02:47:34;;;;;;;1.92;0.90;;;;;;;11.44;100.00;101291.25;5061250;28;20038;-60
2024/01/24 02:50:02;;;;;;;0.90;0.75;;;;;;;11.44;100.00;101302.38;5064681;28;20108;-60
2024/01/24 02:52:27;;;;;;;0.95;0.95;;;;;;;11.44;100.00;101296.81;5024473;28;20034;-60
2024/01/24 02:54:53;;;;;;;0.80;0.80;;;;;;;11.45;100.00;101298.47;5089731;28;20041;-60
2024/01/24 02:57:18;;;;;;;0.90;0.90;;;;;;;11.45;100.00;101292.94;5052149;28;20016;-59
2024/01/24 02:59:44;;;;;;;1.35;1.10;;;;;;;11.45;100.00;101268.75;5077080;27;20104;-59
2024/01/24 03:02:09;;;;;;;2.15;1.02;;;;;;;11.46;100.00;101277.94;5081580;28;20034;-59
2024/01/24 03:04:34;;;;;;;1.20;1.10;;;;;;;11.48;100.00;101257.13;5048497;28;20032;-59
2024/01/24 03:07:00;;;;;;;1.48;1.27;;;;;;;11.47;100.00;101277.66;5099022;28;20023;-59
2024/01/24 03:09:25;;;;;;;1.50;1.40;;;;;;;11.47;100.00;101279.59;5045399;28;20383;-59
2024/01/24 03:11:50;;;;;;;2.22;1.67;;;;;;;11.47;100.00;101263.78;5020145;28;20069;-60
2024/01/24 03:14:15;;;;;;;1.60;1.50;;;;;;;11.48;100.00;101276.59;5074162;28;20089;-60
2024/01/24 03:16:41;;;;;;;2.30;1.40;;;;;;;11.49;100.00;101274.66;5011212;28;20029;-59
2024/01/24 03:19:07;;;;;;;1.60;1.50;;;;;;;11.49;100.00;101256.03;5010863;28;20122;-60
2024/01/24 03:21:32;;;;;;;2.20;1.50;;;;;;;11.50;100.00;101295.78;5009656;28;20034;-59
2024/01/24 03:23:58;;;;;;;1.83;1.10;;;;;;;11.49;100.00;101292.19;5010450;28;20025;-60
2024/01/24 03:26:23;;;;;;;3.42;1.20;;;;;;;11.50;99.85;101295.78;5029166;28;20037;-59
2024/01/24 03:28:49;;;;;;;3.75;1.25;;;;;;;11.50;99.40;101315.25;5077059;28;20027;-59
2024/01/24 03:31:14;;;;;;;2.65;1.10;;;;;;;11.50;98.85;101304.97;5078826;28;21027;-59
2024/01/24 03:33:39;;;;;;;2.47;1.15;;;;;;;11.51;98.63;101320.59;5018111;28;20037;-60
2024/01/24 03:36:05;;;;;;;1.90;1.25;;;;;;;11.53;98.19;101334.22;5009492;28;20074;-59
2024/01/24 03:38:30;;;;;;;3.70;1.17;;;;;;;11.53;97.75;101354.53;5010582;28;20476;-60
2024/01/24 03:40:55;;;;;;;2.10;1.10;;;;;;;11.53;97.56;101348.97;5009903;28;20389;-59
2024/01/24 03:43:21;;;;;;;2.45;1.10;;;;;;;11.54;95.86;101344.25;5009909;28;20030;-60
2024/01/24 03:45:46;;;;;;;4.32;1.50;;;;;;;11.54;94.99;101350.66;5009834;28;20149;-59
2024/01/24 03:48:12;;;;;;;6.35;1.48;;;;;;;11.55;93.54;101352.34;5067385;28;20048;-59
2024/01/24 03:50:38;;;;;;;3.33;1.40;;;;;;;11.57;93.10;101374.34;5011332;28;20116;-60
2024/01/24 03:53:04;;;;;;;4.38;1.50;;;;;;;11.57;92.53;101379.06;5026648;28;20120;-60
2024/01/24 03:55:30;;;;;;;3.03;1.63;;;;;;;11.58;92.28;101378.81;5009104;28;20469;-60
2024/01/24 03:57:56;;;;;;;5.00;1.60;;;;;;;11.58;91.29;101383.53;5009750;28;20044;-60
2024/01/24 04:00:22;;;;;;;6.30;1.70;;;;;;;11.59;90.64;101372.13;5009368;28;20022;-60
2024/01/24 04:02:48;;;;;;;10.20;2.05;;;;;;;11.61;89.72;101377.47;5024896;28;20077;-60
2024/01/24 04:05:14;;;;;;;8.57;2.10;;;;;;;11.61;87.64;101369.97;5072115;28;20071;-60
2024/01/24 04:07:40;;;;;;;9.52;2.30;;;;;;;11.60;87.41;101367.44;5032073;28;20060;-60
2024/01/24 04:10:06;;;;;;;11.40;2.75;;;;;;;11.61;87.07;101363.56;4989609;28;20050;-60
2024/01/24 04:12:31;;;;;;;9.57;2.67;;;;;;;11.62;85.46;101340.22;4990336;28;20075;-60
2024/01/24 04:14:57;;;;;;;11.75;2.38;;;;;;;11.62;84.26;101351.34;4990326;28;20044;-60
2024/01/24 04:17:22;;;;;;;12.88;2.60;;;;;;;11.61;84.12;101363.56;5005524;28;20126;-60
2024/01/24 04:19:47;;;;;;;7.90;2.47;;;;;;;11.61;84.04;101364.41;5009807;28;20056;-60
2024/01/24 04:22:13;;;;;;;13.00;2.80;;;;;;;11.60;83.76;101370.22;5010573;28;20060;-60
2024/01/24 04:24:39;;;;;;;11.88;2.63;;;;;;;11.60;82.79;101367.44;5003861;28;20377;-60
2024/01/24 04:27:05;;;;;;;14.15;2.70;;;;;;;11.59;83.30;101385.19;5009576;28;20021;-60
2024/01/24 04:29:31;;;;;;;9.73;2.92;;;;;;;11.58;82.30;101405.75;5021990;28;20063;-60
2024/01/24 04:31:56;;;;;;;13.63;2.78;;;;;;;11.57;81.47;101406.88;5017789;28;20053;-60
2024/01/24 04:34:21;;;;;;;15.63;3.08;;;;;;;11.58;82.22;101394.63;5027231;28;20534;-60
2024/01/24 04:36:46;;;;;;;14.50;2.97;;;;;;;11.58;81.79;101392.69;5009719;28;20034;-60
2024/01/24 04:39:12;;;;;;;13.95;3.78;;;;;;;11.57;81.14;101440.22;5009286;28;20026;-60
2024/01/24 04:41:37;;;;;;;18.15;3.85;;;;;;;11.57;80.44;101429.09;5009723;28;20041;-60
2024/01/24 04:44:03;;;;;;;16.55;3.65;;;;;;;11.57;80.61;101412.41;5009240;28;20109;-60
2024/01/24 04:46:29;;;;;;;16.40;3.40;;;;;;;11.54;79.99;101422.09;5008119;28;20030;-59
2024/01/24 04:48:54;;;;;;;18.33;3.95;;;;;;;11.54;79.62;101441.56;5009437;28;20030;-60
2024/01/24 04:51:21;;;;;;;17.42;3.72;;;;;;;11.53;79.86;101437.94;5002843;28;20040;-60
2024/01/24 04:53:46;;;;;;;22.63;3.80;;;;;;;11.51;78.99;101423.44;4991338;28;20115;-60
2024/01/24 04:56:12;;;;;;;30.23;5.18;;;;;;;11.53;79.45;101435.16;4989558;28;20054;-60
2024/01/24 04:58:40;;;;;;;20.27;4.25;;;;;;;11.51;79.54;101422.56;4989111;28;20682;-60
2024/01/24 05:01:05;;;;;;;20.17;4.28;;;;;;;11.54;79.70;101399.84;5005291;28;20037;-60
2024/01/24 05:03:30;;;;;;;18.63;3.70;;;;;;;11.54;79.27;101402.63;5010268;28;20037;-59
2024/01/24 05:05:56;;;;;;;23.63;4.70;;;;;;;11.51;78.81;101426.22;5015681;28;20037;-60
2024/01/24 05:08:21;;;;;;;24.10;4.65;;;;;;;11.49;78.64;101403.38;5000464;28;20029;-60
2024/01/24 05:10:46;;;;;;;17.25;4.07;;;;;;;11.49;79.05;101408.94;5007153;28;20430;-60
2024/01/24 05:13:12;;;;;;;17.73;4.13;;;;;;;11.48;78.67;101423.94;5020532;28;20032;-60
2024/01/24 05:15:37;;;;;;;17.98;4.35;;;;;;;11.50;79.04;101443.13;5016065;28;20206;-60
2024/01/24 05:18:02;;;;;;;25.85;5.63;;;;;;;11.50;78.70;101448.69;5016524;28;20029;-59
2024/01/24 05:20:28;;;;;;;24.33;5.25;;;;;;;11.49;78.31;101481.22;5010700;28;20081;-59
2024/01/24 05:22:54;;;;;;;23.85;5.00;;;;;;;11.50;77.31;101490.38;5009834;28;20053;-59
2024/01/24 05:25:19;;;;;;;26.55;5.40;;;;;;;11.47;77.32;101475.03;5015273;28;20057;-59
2024/01/24 05:27:44;;;;;;;21.85;5.13;;;;;;;11.45;77.46;101473.59;5017508;28;20034;-59
2024/01/24 05:30:10;;;;;;;22.55;4.68;;;;;;;11.45;77.47;101474.44;4989073;28;20120;-59
2024/01/24 05:32:36;;;;;;;25.55;5.18;;;;;;;11.46;77.38;101467.78;5001373;28;20060;-59
2024/01/24 05:35:01;;;;;;;23.83;5.05;;;;;;;11.45;77.63;101482.78;5008029;28;20040;-59
2024/01/24 05:37:26;;;;;;;25.83;5.43;;;;;;;11.46;77.41;101470.56;5010550;28;20116;-59
2024/01/24 05:39:52;;;;;;;26.52;4.70;;;;;;;11.45;76.61;101488.34;5007496;28;20461;-59
2024/01/24 05:42:18;;;;;;;27.55;5.32;;;;;;;11.46;76.70;101494.75;5018930;28;20041;-59
2024/01/24 05:44:43;;;;;;;24.98;4.75;;;;;;;11.46;77.37;101484.47;5005761;28;20497;-59
2024/01/24 05:47:08;;;;;;;22.02;4.70;;;;;;;11.47;77.14;101486.16;5021921;28;20054;-59
2024/01/24 05:49:35;;;;;;;29.77;6.10;;;;;;;11.48;77.25;101499.00;5013642;28;20049;-59
2024/01/24 05:52:01;;;;;;;27.35;5.50;;;;;;;11.46;77.03;101495.59;5017127;28;20096;-59
2024/01/24 05:54:26;;;;;;;28.10;5.55;;;;;;;11.47;76.66;101502.00;5006982;28;20611;-59
2024/01/24 05:56:51;;;;;;;28.38;6.32;;;;;;;11.46;76.71;101514.22;5011291;28;20022;-59
2024/01/24 05:59:18;;;;;;;24.33;5.60;;;;;;;11.46;76.44;101509.50;5025604;28;20078;-59
2024/01/24 06:01:43;;;;;;;27.80;5.72;;;;;;;11.45;76.06;101506.97;4993173;28;20038;-59
2024/01/24 06:04:08;;;;;;;30.88;5.78;;;;;;;11.44;76.39;101516.41;5015167;28;20389;-59
2024/01/24 06:06:33;;;;;;;23.13;5.65;;;;;;;11.44;76.61;101513.63;5010739;28;20078;-59
2024/01/24 06:08:59;;;;;;;26.90;6.50;;;;;;;11.41;75.52;101531.63;5019027;28;20089;-59
2024/01/24 06:11:24;;;;;;;26.15;5.30;;;;;;;11.39;75.42;101522.66;5028819;28;20029;-59
2024/01/24 06:13:49;;;;;;;31.52;6.72;;;;;;;11.41;75.76;101542.75;5019208;28;20029;-59
2024/01/24 06:16:15;;;;;;;28.85;6.10;;;;;;;11.41;75.47;101514.09;5021005;28;20492;-59
2024/01/24 06:18:40;;;;;;;24.83;5.25;;;;;;;11.37;74.64;101551.81;5020298;28;20096;-60
2024/01/24 06:21:07;;;;;;;30.15;6.38;;;;;;;11.36;74.46;101566.75;5023349;28;20037;-60
2024/01/24 06:23:32;;;;;;;34.58;6.93;;;;;;;11.34;74.34;101553.13;5016448;28;20029;-60
2024/01/24 06:25:58;;;;;;;29.13;6.15;;;;;;;11.34;72.96;101582.84;5021085;28;20033;-59
2024/01/24 06:28:23;;;;;;;31.50;6.30;;;;;;;11.33;73.46;101568.13;5018528;28;20021;-59
2024/01/24 06:30:48;;;;;;;28.80;6.82;;;;;;;11.34;73.84;101588.41;5018286;28;20032;-60
2024/01/24 06:33:13;;;;;;;32.10;6.68;;;;;;;11.35;75.16;101599.28;5018549;28;20054;-60
2024/01/24 06:35:39;;;;;;;35.78;6.72;;;;;;;11.34;74.02;101594.81;5019946;28;20036;-60
2024/01/24 06:38:04;;;;;;;29.30;5.95;;;;;;;11.32;73.74;101588.66;5023594;28;20026;-60
2024/01/24 06:40:29;;;;;;;31.40;6.75;;;;;;;11.35;74.44;101612.34;5029495;28;20029;-60
2024/01/24 06:42:55;;;;;;;36.97;7.25;;;;;;;11.32;73.17;101627.56;5044244;28;20057;-60
2024/01/24 06:45:20;;;;;;;32.47;6.55;;;;;;;11.31;73.97;101643.38;5024385;28;20447;-60
2024/01/24 06:47:45;;;;;;;34.35;6.55;;;;;;;11.32;73.76;101655.38;4992109;28;20466;-60
2024/01/24 06:50:13;;;;;;;33.63;6.47;;;;;;;11.31;73.37;101643.38;5009346;28;20039;-60
2024/01/24 06:52:40;;;;;;;33.25;7.72;;;;;;;11.28;73.35;101677.22;5025072;28;20184;-60
2024/01/24 06:55:05;;;;;;;34.15;7.22;;;;;;;11.27;73.44;101696.91;5008232;28;20045;-60
2024/01/24 06:57:31;;;;;;;32.58;7.40;;;;;;;11.21;71.58;101701.50;5010962;28;20568;-60
2024/01/24 06:59:56;;;;;;;40.63;7.75;;;;;;;11.20;71.56;101712.81;5020362;28;20034;-60
2024/01/24 07:02:21;;;;;;;38.05;6.50;;;;;;;11.17;71.16;101705.81;5015000;28;20034;-60
2024/01/24 07:04:47;;;;;;;40.25;7.32;;;;;;;11.17;72.43;101669.69;5009222;28;20407;-60
2024/01/24 07:07:12;;;;;;;34.05;7.18;;;;;;;11.19;72.11;101677.78;5010576;28;20046;-60
2024/01/24 07:09:37;;;;;;;34.83;7.30;;;;;;;11.17;71.99;101674.41;5010267;28;20026;-61
2024/01/24 07:12:04;;;;;;;34.88;7.15;;;;;;;11.13;71.74;101676.81;5028923;28;20124;-61
2024/01/24 07:14:29;;;;;;;33.20;7.30;;;;;;;11.12;70.76;101688.16;5003647;28;20033;-61
2024/01/24 07:16:54;;;;;;;36.50;7.53;;;;;;;11.11;71.61;101695.66;5013594;28;20567;-60
2024/01/24 07:19:20;;;;;;;34.40;8.43;;;;;;;11.07;70.98;101692.50;5011119;28;20057;-61
2024/01/24 07:21:46;;;;;;;36.67;7.35;;;;;;;11.07;71.74;101703.59;5014489;28;20124;-60
2024/01/24 07:24:11;;;;;;;36.35;7.40;;;;;;;11.09;72.18;101716.44;5010121;28;20036;-60
2024/01/24 07:26:36;;;;;;;29.52;7.00;;;;;;;11.11;72.69;101730.91;5003625;28;20029;-60
2024/01/24 07:29:02;;;;;;;36.72;6.78;;;;;;;11.11;72.38;101717.03;5016847;28;20414;-62
2024/01/24 07:31:27;;;;;;;40.53;7.05;;;;;;;11.11;71.94;101717.03;4999857;28;20467;-61
2024/01/24 07:33:52;;;;;;;35.15;7.35;;;;;;;11.07;71.90;101724.97;5006648;28;20026;-61
2024/01/24 07:36:21;;;;;;;30.20;6.50;;;;;;;11.05;71.65;101747.47;5009094;28;20457;-62
2024/01/24 07:38:46;;;;;;;35.30;7.32;;;;;;;11.05;71.19;101739.13;5012459;28;20025;-63
2024/01/24 07:41:12;;;;;;;32.60;7.63;;;;;;;11.05;70.66;101744.69;5008725;28;20083;-62
2024/01/24 07:43:37;;;;;;;37.08;7.88;;;;;;;11.04;71.04;101737.44;5009512;28;20125;-62
2024/01/24 07:46:02;;;;;;;38.95;7.55;;;;;;;11.06;70.00;101723.28;5009751;28;20049;-62
2024/01/24 07:48:28;;;;;;;36.03;7.32;;;;;;;11.05;69.69;101750.22;4994741;28;20042;-62
2024/01/24 07:50:53;;;;;;;39.28;7.38;;;;;;;11.05;70.31;101750.22;5003628;28;20439;-63
2024/01/24 07:53:19;;;;;;;29.77;6.78;;;;;;;11.04;68.03;101759.66;5006739;28;20724;-61
2024/01/24 07:55:44;;;;;;;36.78;7.40;;;;;;;11.02;68.75;101767.38;5002347;28;20102;-62
2024/01/24 07:58:10;;;;;;;37.55;7.75;;;;;;;11.00;67.49;101780.66;5005824;28;20021;-61
2024/01/24 08:00:35;;;;;;;37.42;7.13;;;;;;;11.00;68.20;101782.56;5009147;28;20082;-61
2024/01/24 08:03:01;;;;;;;34.38;7.72;;;;;;;11.00;68.04;101779.78;5023659;28;20461;-62
2024/01/24 08:05:29;;;;;;;33.65;7.35;;;;;;;11.01;68.15;101792.63;5008665;28;20033;-61
2024/01/24 08:07:55;;;;;;;34.85;7.38;;;;;;;10.97;67.76;101775.56;5009368;28;20454;-60
2024/01/24 08:10:20;;;;;;;34.72;7.30;;;;;;;10.98;67.58;101784.72;5027483;28;20036;-61
2024/01/24 08:12:45;;;;;;;36.53;7.13;;;;;;;10.94;66.96;101770.47;5014863;28;20109;-60
2024/01/24 08:15:11;;;;;;;36.10;6.97;;;;;;;10.96;67.48;101787.72;5008553;28;20103;-62
2024/01/24 08:17:39;;;;;;;37.80;8.57;;;;;;;10.93;67.03;101796.56;5008615;28;20114;-61
2024/01/24 08:20:08;;;;;;;35.58;7.53;;;;;;;10.91;66.42;101797.84;5009064;28;20042;-61
2024/01/24 08:22:34;;;;;;;36.72;8.95;;;;;;;10.91;67.07;101815.38;5007814;28;20044;-62
2024/01/24 08:25:00;;;;;;;37.13;7.60;;;;;;;10.93;67.55;101816.00;5009169;28;20037;-61
2024/01/24 08:27:25;;;;;;;38.10;7.95;;;;;;;10.90;66.91;101830.34;5013207;28;20037;-60
2024/01/24 08:29:51;;;;;;;32.72;6.72;;;;;;;10.94;67.57;101830.72;5007538;28;20033;-60
2024/01/24 08:32:16;;;;;;;28.75;6.93;;;;;;;10.96;67.72;101812.72;5009075;28;20040;-60
2024/01/24 08:34:43;;;;;;;37.35;7.13;;;;;;;10.97;67.19;101814.44;5048951;28;20379;-60
2024/01/24 08:37:09;;;;;;;44.08;7.78;;;;;;;10.97;67.63;101814.44;5016833;28;20034;-60
2024/01/24 08:39:36;;;;;;;34.63;7.50;;;;;;;10.98;67.09;101849.47;4991480;28;20072;-61
2024/01/24 08:42:02;;;;;;;33.72;7.63;;;;;;;11.00;67.28;101852.00;5004014;28;20034;-60
2024/01/24 08:44:28;;;;;;;35.05;7.15;;;;;;;11.00;67.53;101855.66;5007023;28;20121;-61
2024/01/24 08:46:53;;;;;;;32.13;7.60;;;;;;;10.99;67.20;101853.09;5007987;28;20220;-61
2024/01/24 08:49:18;;;;;;;39.05;7.88;;;;;;;10.99;67.41;101862.28;5008265;28;20037;-61
2024/01/24 08:51:44;;;;;;;41.25;7.63;;;;;;;11.03;67.98;101857.94;5006911;28;20069;-60
2024/01/24 08:54:11;;;;;;;36.75;7.13;;;;;;;11.03;67.38;101857.09;4998933;28;20032;-61
2024/01/24 08:56:37;;;;;;;35.97;7.78;;;;;;;11.07;67.53;101861.13;5001176;28;20023;-61
2024/01/24 08:59:03;;;;;;;38.03;7.80;;;;;;;11.09;67.60;101844.22;4994858;28;20405;-60
2024/01/24 09:01:28;;;;;;;34.60;7.13;;;;;;;11.06;66.90;101839.97;5010025;28;20022;-61
2024/01/24 09:03:53;;;;;;;34.30;7.10;;;;;;;11.04;66.98;101876.34;5010758;28;20537;-61
2024/01/24 09:06:20;;;;;;;37.80;8.20;;;;;;;11.05;67.42;101891.94;5009841;28;20030;-61
2024/01/24 09:08:45;;;;;;;37.92;7.60;;;;;;;11.01;67.04;101912.91;5010532;28;20033;-61
2024/01/24 09:11:11;;;;;;;40.58;7.65;;;;;;;10.99;66.58;101915.06;5028309;28;20029;-61
2024/01/24 09:13:36;;;;;;;33.33;7.88;;;;;;;11.04;67.16;101919.91;5017729;28;20602;-61
2024/01/24 09:16:01;;;;;;;26.52;6.88;;;;;;;11.03;67.00;101890.44;4990963;28;20033;-61
2024/01/24 09:18:27;;;;;;;36.65;6.97;;;;;;;11.06;67.43;101898.31;4990093;28;20101;-61
2024/01/24 09:20:53;;;;;;;31.98;7.50;;;;;;;11.05;67.01;101899.41;4990690;28;20022;-60
2024/01/24 09:23:21;;;;;;;34.47;7.43;;;;;;;11.04;67.17;101914.34;4990363;28;20440;-61
2024/01/24 09:25:46;;;;;;;40.10;7.82;;;;;;;11.06;67.31;101907.50;5009675;28;20018;-60
2024/01/24 09:28:12;;;;;;;35.65;7.68;;;;;;;11.04;66.57;101923.56;5010242;28;20040;-61
2024/01/24 09:30:39;;;;;;;41.95;7.57;;;;;;;11.06;67.37;101917.78;5013994;28;20039;-60
2024/01/24 09:33:04;;;;;;;41.70;8.43;;;;;;;11.08;67.59;101943.38;5000651;28;20030;-61
2024/01/24 09:35:30;;;;;;;33.85;8.00;;;;;;;11.09;67.79;101958.16;4990174;28;20505;-60
2024/01/24 09:37:55;;;;;;;38.42;7.63;;;;;;;11.11;67.29;101967.09;4990880;28;20462;-61
2024/01/24 09:40:21;;;;;;;37.95;7.43;;;;;;;11.16;67.81;101989.47;5023995;28;20063;-60
2024/01/24 09:42:46;;;;;;;39.58;7.93;;;;;;;11.15;67.29;101988.63;5029706;28;20033;-60
2024/01/24 09:45:16;;;;;;;40.80;8.20;;;;;;;11.21;67.10;101986.88;5029619;28;20154;-60
2024/01/24 09:47:43;;;;;;;39.60;8.50;;;;;;;11.16;67.03;101972.81;5028694;28;20029;-60
2024/01/24 09:50:09;;;;;;;42.88;8.48;;;;;;;11.20;67.28;101969.34;5020096;28;20022;-61
2024/01/24 09:52:34;;;;;;;31.48;7.38;;;;;;;11.23;67.12;101968.88;5002461;28;20029;-61
2024/01/24 09:55:04;;;;;;;40.67;7.05;;;;;;;11.29;67.03;101961.56;5010265;28;20038;-60
2024/01/24 09:57:31;;;;;;;40.85;8.02;;;;;;;11.28;66.57;101971.84;5029424;28;20025;-61
2024/01/24 09:59:56;;;;;;;37.58;7.70;;;;;;;11.27;65.73;101980.38;5030027;28;20041;-61
2024/01/24 10:02:24;;;;;;;43.03;8.20;;;;;;;11.26;66.05;101993.44;5028595;28;20086;-61
2024/01/24 10:04:51;;;;;;;34.65;7.10;;;;;;;11.33;66.54;101996.16;5029635;28;20429;-61
2024/01/24 10:07:18;;;;;;;35.67;7.13;;;;;;;11.34;65.78;102013.69;5028087;28;20038;-60
2024/01/24 10:09:43;;;;;;;42.72;7.80;;;;;;;11.40;65.78;102012.78;5005081;28;20131;-61
2024/01/24 10:12:09;;;;;;;38.05;7.97;;;;;;;11.44;65.96;101998.16;5009853;28;20026;-61
2024/01/24 10:14:35;;;;;;;36.10;8.52;;;;;;;11.50;65.97;102024.19;5009407;28;20420;-61
2024/01/24 10:17:00;;;;;;;36.13;8.48;;;;;;;11.55;65.95;102022.44;5007265;28;20030;-61
2024/01/24 10:19:26;;;;;;;42.35;7.30;;;;;;;11.62;65.22;102018.72;5014315;28;20030;-61
2024/01/24 10:21:52;;;;;;;32.20;7.35;;;;;;;11.67;65.05;102014.16;5007673;28;20033;-61
2024/01/24 10:24:18;;;;;;;35.90;7.30;;;;;;;11.70;64.47;102035.09;5008073;28;20034;-61
2024/01/24 10:26:46;;;;;;;33.67;8.30;;;;;;;11.73;63.62;102045.75;4995363;28;20091;-61
2024/01/24 10:29:12;;;;;;;34.45;6.68;;;;;;;11.76;64.69;102051.69;4999252;28;20056;-61
2024/01/24 10:31:37;;;;;;;29.77;7.18;;;;;;;11.72;63.90;102052.41;4989588;28;20065;-61
2024/01/24 10:34:06;;;;;;;36.92;7.50;;;;;;;11.73;64.62;102045.75;5008288;28;20029;-61
2024/01/24 10:36:32;;;;;;;32.55;7.13;;;;;;;11.71;64.19;102054.34;5028359;28;20072;-61
2024/01/24 10:39:05;;;;;;;34.13;6.85;;;;;;;11.70;63.88;102057.34;5029278;28;20035;-61
2024/01/24 10:41:32;;;;;;;33.78;7.88;;;;;;;11.68;63.87;102071.47;5029082;28;20024;-61
2024/01/24 10:44:04;;;;;;;32.15;7.40;;;;;;;11.72;64.44;102069.94;5025541;28;20068;-61
2024/01/24 10:46:31;;;;;;;36.72;7.82;;;;;;;11.75;63.71;102063.03;5020143;28;20036;-61
2024/01/24 10:48:57;;;;;;;37.05;6.70;;;;;;;11.73;63.37;102065.22;5005748;28;20426;-61
2024/01/24 10:51:22;;;;;;;41.53;8.27;;;;;;;11.74;63.14;102055.78;5028059;28;20032;-62
2024/01/24 10:53:52;;;;;;;38.25;7.07;;;;;;;11.72;63.10;102061.59;5031572;28;20037;-61
2024/01/24 10:56:17;;;;;;;30.40;7.20;;;;;;;11.73;63.39;102060.50;5032653;28;20030;-61
2024/01/24 10:58:45;;;;;;;33.80;7.00;;;;;;;11.71;62.79;102054.34;5031733;28;20476;-61
2024/01/24 11:01:10;;;;;;;32.92;6.95;;;;;;;11.73;62.80;102076.34;5017368;28;20022;-61
2024/01/24 11:03:36;;;;;;;38.88;7.65;;;;;;;11.72;62.64;102074.66;4998078;28;20143;-61
2024/01/24 11:06:05;;;;;;;30.58;6.65;;;;;;;11.71;62.86;102093.28;5007917;28;20014;-61
2024/01/24 11:08:38;;;;;;;33.33;7.32;;;;;;;11.72;63.47;102094.97;5005768;28;20030;-63
2024/01/24 11:11:09;;;;;;;33.45;7.35;;;;;;;11.74;63.02;102097.50;5009712;28;20017;-61